createdAt,value
2022-10-02T06:54:31.533Z,1.85
2022-10-02T07:00:12.500Z,1.63
2022-10-02T07:06:02.518Z,1.97
2022-10-02T07:11:37.555Z,1.60
2022-10-02T07:17:23.506Z,1.48
2022-10-02T07:23:01.513Z,1.30
2022-10-02T07:28:35.536Z,1.27
2022-10-02T07:34:20.494Z,1.40
2022-10-02T07:39:58.510Z,1.10
2022-10-02T07:45:43.612Z,1.05
2022-10-02T07:51:34.542Z,1.15
2022-10-02T07:57:03.305Z,1.10
2022-10-02T08:02:42.550Z,1.10
2022-10-02T08:08:12.503Z,0.80
2022-10-02T08:13:43.542Z,1.10
2022-10-02T08:19:14.522Z,0.90
2022-10-02T08:24:42.602Z,1.07
2022-10-02T08:30:13.550Z,1.15
2022-10-02T08:35:52.559Z,1.20
2022-10-02T08:41:48.613Z,1.08
2022-10-02T08:47:50.614Z,1.10
2022-10-02T08:53:50.572Z,1.10
2022-10-02T08:59:43.577Z,1.10
2022-10-02T09:05:50.551Z,1.15
2022-10-02T09:11:51.579Z,1.10
2022-10-02T09:17:37.578Z,1.20
2022-10-02T09:23:22.586Z,1.27
2022-10-02T09:29:35.562Z,1.27
2022-10-02T09:35:34.593Z,1.33
2022-10-02T09:41:30.637Z,1.50
2022-10-02T09:47:49.622Z,1.40
2022-10-02T09:53:51.658Z,1.35
2022-10-02T09:59:56.632Z,1.10
2022-10-02T10:05:48.577Z,1.23
2022-10-02T10:11:35.845Z,1.50
2022-10-02T10:17:29.594Z,1.60
2022-10-02T10:23:17.627Z,1.50
2022-10-02T10:29:01.841Z,1.40
2022-10-02T10:35:26.468Z,1.45
2022-10-02T10:41:29.606Z,1.40
2022-10-02T10:47:28.657Z,1.33
2022-10-02T10:53:10.647Z,1.30
2022-10-02T10:58:49.761Z,1.25
2022-10-02T11:04:54.679Z,0.90
2022-10-02T11:10:44.646Z,0.95
2022-10-02T11:16:26.689Z,1.00
2022-10-02T11:22:22.680Z,0.95
2022-10-02T11:28:25.763Z,1.00
2022-10-02T11:34:23.673Z,0.98
2022-10-02T11:40:03.743Z,0.98
2022-10-02T11:45:54.718Z,0.90
2022-10-02T11:51:35.058Z,0.80
2022-10-02T11:57:20.715Z,0.90
2022-10-02T12:03:01.882Z,1.17
2022-10-02T12:08:38.574Z,1.20
2022-10-02T12:14:15.750Z,1.30
2022-10-02T12:20:16.790Z,0.98
2022-10-02T12:26:04.973Z,1.00
2022-10-02T12:31:36.947Z,1.02
2022-10-02T12:37:14.821Z,1.00
2022-10-02T12:43:16.761Z,0.80
2022-10-02T12:49:00.779Z,0.77
2022-10-02T12:55:09.817Z,0.80
2022-10-02T13:00:44.819Z,1.15
2022-10-02T13:06:38.766Z,1.05
2022-10-02T13:12:27.803Z,1.17
2022-10-02T13:18:03.447Z,1.00
2022-10-02T13:23:42.635Z,1.05
2022-10-02T13:29:40.787Z,1.15
2022-10-02T13:35:34.742Z,1.30
2022-10-02T13:41:07.747Z,0.90
2022-10-02T13:46:54.751Z,0.90
2022-10-02T13:52:46.270Z,0.90
2022-10-02T13:58:44.936Z,0.65
2022-10-02T14:04:39.197Z,0.60
2022-10-02T14:10:26.459Z,0.63
2022-10-02T14:22:57.015Z,0.65
2022-10-02T14:34:34.845Z,1.00
2022-10-02T14:40:01.006Z,0.90
2022-10-02T14:45:40.950Z,0.80
2022-10-02T14:51:25.836Z,0.90
2022-10-02T14:57:08.826Z,0.77
2022-10-02T15:02:52.006Z,0.88
2022-10-02T15:08:25.842Z,0.65
2022-10-02T15:13:58.810Z,1.00
2022-10-02T15:19:31.847Z,0.80
2022-10-02T15:25:05.862Z,1.10
2022-10-02T15:30:35.828Z,1.00
2022-10-02T15:36:29.822Z,1.55
2022-10-02T15:42:09.844Z,1.20
2022-10-02T15:48:00.862Z,1.10
2022-10-02T15:53:46.003Z,1.20
2022-10-02T15:59:29.868Z,1.20
2022-10-02T16:05:08.825Z,1.20
2022-10-02T16:10:40.847Z,1.40
2022-10-02T16:16:16.880Z,1.70
2022-10-02T16:21:53.835Z,1.40
2022-10-02T16:27:39.795Z,1.30
2022-10-02T16:33:33.867Z,1.60
2022-10-02T16:39:00.857Z,1.40
2022-10-02T16:44:41.825Z,2.20
2022-10-02T16:50:14.839Z,2.63
2022-10-02T16:55:47.812Z,1.90
2022-10-02T17:01:28.808Z,1.55
2022-10-02T17:07:05.865Z,1.67
2022-10-02T17:12:35.874Z,1.70
2022-10-02T17:18:16.849Z,1.80
2022-10-02T17:23:53.855Z,1.97
2022-10-02T17:29:27.988Z,2.40
2022-10-02T17:34:58.851Z,2.22
2022-10-02T17:40:39.841Z,2.17
2022-10-02T17:46:15.951Z,2.20
2022-10-02T17:51:58.885Z,2.55
2022-10-02T17:57:39.870Z,2.08
2022-10-02T18:03:26.898Z,2.27
2022-10-02T18:09:17.903Z,2.53
2022-10-02T18:15:11.902Z,2.60
2022-10-02T18:20:43.877Z,2.30
2022-10-02T18:26:29.870Z,2.38
2022-10-02T18:32:15.911Z,2.40
2022-10-02T18:37:57.881Z,2.35
2022-10-02T18:43:38.900Z,2.75
2022-10-02T18:49:27.935Z,2.20
2022-10-02T18:55:06.923Z,1.95
2022-10-02T19:00:34.954Z,2.15
2022-10-02T19:06:11.891Z,2.33
2022-10-02T19:11:38.937Z,2.20
2022-10-02T19:17:15.884Z,1.95
2022-10-02T19:22:45.922Z,1.90
2022-10-02T19:28:10.956Z,1.58
2022-10-02T19:33:48.939Z,1.45
2022-10-02T19:39:18.927Z,1.70
2022-10-02T19:44:53.895Z,1.50
2022-10-02T19:50:29.924Z,1.55
2022-10-02T19:55:58.963Z,1.40
2022-10-02T20:01:30.960Z,1.40
2022-10-02T20:07:05.924Z,1.58
2022-10-02T20:12:38.981Z,1.45
2022-10-02T20:18:02.950Z,1.55
2022-10-02T20:23:34.912Z,1.55
2022-10-02T20:29:07.921Z,1.40
2022-10-02T20:34:38.023Z,1.60
2022-10-02T20:40:06.959Z,1.85
2022-10-02T20:45:44.015Z,1.67
2022-10-02T20:51:16.947Z,1.73
2022-10-02T20:57:00.002Z,1.40
2022-10-02T21:02:44.931Z,1.90
2022-10-02T21:08:40.950Z,1.63
2022-10-02T21:14:49.971Z,1.52
2022-10-02T21:20:53.975Z,1.85
2022-10-02T21:26:55.960Z,1.95
2022-10-02T21:38:19.987Z,1.63
2022-10-02T21:44:13.007Z,1.70
2022-10-02T21:50:14.978Z,1.70
2022-10-02T22:02:07.923Z,1.60
2022-10-02T22:07:45.971Z,1.60
2022-10-02T22:13:25.011Z,1.50
2022-10-02T22:19:02.990Z,1.60
2022-10-02T22:24:58.017Z,1.60
2022-10-02T22:30:35.026Z,1.70
2022-10-02T22:36:24.017Z,1.80
2022-10-02T22:41:53.072Z,1.90
2022-10-02T22:47:30.002Z,1.70
2022-10-02T22:53:03.986Z,1.70
2022-10-02T22:58:33.006Z,1.48
2022-10-02T23:04:09.029Z,1.80
2022-10-02T23:09:46.007Z,1.80
2022-10-02T23:15:19.006Z,1.80
2022-10-02T23:20:49.043Z,1.83
2022-10-02T23:26:23.027Z,1.90
2022-10-02T23:31:55.015Z,1.95
2022-10-02T23:37:31.033Z,1.70
2022-10-02T23:43:06.053Z,1.90
2022-10-02T23:48:32.043Z,1.63
2022-10-02T23:54:28.045Z,1.70
